Aérodrome :







RETROUVEZ-NOUS SUR...

 
LOGIN :

S'inscrire | Disclaimer

   EN    FR    IT 

 









Légende :    VFR   VFR Marginal   IFR   IFR Intensif   IFR Très Intensif
Visi : 
Plafond : 
>= 8 km
>= 3000ft
5 à 8 km
1000 à 3000 ft
1500m à 5 km
500 à 1000 ft
800 à 1500m
200 à 500 ft
< 800m
< 200 ft
Symboles :   Orages  Brouillard  Fortes neiges  Fortes précipitations  Vent > 20 kt






- Altitude de l'aérodrome : 108 ft
- Code IATA : YAY


CYAY - St Anthony

DERNIER METAR :
  • 150205Z AUTO 13012G17KT 9SM BKN011 OVC019 M01/M03 A3021 RMK SLP234

METARs EXPIRÉS :
  • 150136Z AUTO 12013G19KT 9SM OVC009 M02/M03 A3021 RMK SLP235
  • 150107Z AUTO 11012G19KT 9SM OVC007 M02/M03 A3023 RMK SLP241
  • 150057Z AUTO 11013G18KT 9SM -SN OVC007 M02/M03 A3023 RMK PRESFR SLP242
  • 150000Z AUTO 10011KT 9SM BKN007 OVC013 M03/M04 A3027 RMK SLP253
  • 142355Z AUTO 11011KT 9SM BKN007 OVC013 M03/M04 A3027 RMK PRESFR SLP254

TAF TAF CYAY
Valide du 15 à 02h jusqu'au 15 à 14h UTC


150138Z 1502/1514 11012G22KT 6SM -SN OVC010
TEMPO 1502/1503 3/4SM -SN VV004
FM150300 11012KT 1/2SM SN BLSN VV003
TEMPO 1503/1508 1SM -SN VV006
BECMG 1503/1505 10022G32KT
FM150800 12025G35KT 3/4SM -SN -PL VV004
TEMPO 1508/1510 2SM -PL BR OVC008
PROB30 1508/1510 2SM -FZRA BR
FM151000 11025G35KT 3/4SM -PL BR OVC004
TEMPO 1510/1513 3SM -FZRA BR OVC008
FM151300 12025G35KT 2SM -RA BR OVC005 RMK FCST BASED ON AUTO OBS. NXT FCST BY 150800Z



MET'MAP, la Météo Aéronautique d'un coup d'oeil ! - Copyright ORBIFLY Décembre 2007 - Disclaimer

ORBIFLY MET'MAP TEAM :

Programmation & Développement : Alexandra Zaïnal
Sur une idée originale de : Baudouin d'Aumeries
Assistance à la programmation : Marc-Olivier Méhu
Soutien technique & logistique : Manuel Goepfert

Contact : metmap@orbifly.com




SOURCES & CREDITS :

   NOAA